Terminal Aerodrome Forecast
Issued by NWS Wilmington, OH

Current Version | Previous Version | Graphics & Text | Print | Product List | Glossary On
Versions: 1 2 3 4 5 6 7 8 9 10 11 12 13 14 15 16 17 18 19 20 21 22 23 24 25 26 27 28 29 30
767
FTUS41 KILN 240204 AAA
TAFCVG
TAF AMD
KCVG 240204Z 2402/2506 27006KT P6SM VCSH SCT012 BKN110 OVC170
     FM240500 36007KT 5SM BR VCSH OVC012
     FM241000 04006KT 5SM -SHRA OVC008
     FM241400 06009KT 3SM SHRA OVC012
     FM241800 07010KT P6SM VCSH OVC022
     FM250000 15012KT P6SM SHRA OVC050
     FM250300 17016G26KT 5SM SHRA VCTS OVC050CB=

USA.gov is the U.S. government's official web portal to all federal, state and local government web resources and services.